sensor_id;sensor_type;location;lat;lon;timestamp;pressure;altitude;pressure_sealevel;temperature;humidity
70407;BME280;57821;52.202;0.154;2023-03-03T00:00:55;102848.53;;;6.06;69.25
70407;BME280;57821;52.202;0.154;2023-03-03T00:03:23;102850.28;;;6.07;68.40
70407;BME280;57821;52.202;0.154;2023-03-03T00:05:52;102853.69;;;6.06;68.81
70407;BME280;57821;52.202;0.154;2023-03-03T00:08:20;102850.88;;;6.01;68.72
70407;BME280;57821;52.202;0.154;2023-03-03T00:10:46;102850.84;;;6.00;68.71
70407;BME280;57821;52.202;0.154;2023-03-03T00:13:15;102851.78;;;6.02;68.77
70407;BME280;57821;52.202;0.154;2023-03-03T00:15:42;102851.78;;;6.02;68.57
70407;BME280;57821;52.202;0.154;2023-03-03T00:18:35;102865.44;;;6.01;68.62
70407;BME280;57821;52.202;0.154;2023-03-03T00:21:23;102863.72;;;6.00;68.86
70407;BME280;57821;52.202;0.154;2023-03-03T00:23:51;102855.09;;;5.99;68.83
70407;BME280;57821;52.202;0.154;2023-03-03T00:26:33;102854.25;;;6.00;69.10
70407;BME280;57821;52.202;0.154;2023-03-03T00:29:00;102846.31;;;5.96;68.73
70407;BME280;57821;52.202;0.154;2023-03-03T00:31:35;102854.22;;;5.99;69.25
70407;BME280;57821;52.202;0.154;2023-03-03T00:36:43;102853.41;;;6.00;69.46
70407;BME280;57821;52.202;0.154;2023-03-03T00:39:21;102864.56;;;6.00;69.45
70407;BME280;57821;52.202;0.154;2023-03-03T00:41:49;102861.88;;;5.97;68.47
70407;BME280;57821;52.202;0.154;2023-03-03T00:44:47;102855.91;;;5.98;69.93
70407;BME280;57821;52.202;0.154;2023-03-03T00:52:38;102851.66;;;5.99;69.37
70407;BME280;57821;52.202;0.154;2023-03-03T00:55:06;102848.97;;;5.97;69.59
70407;BME280;57821;52.202;0.154;2023-03-03T00:57:34;102859.38;;;5.99;69.19
70407;BME280;57821;52.202;0.154;2023-03-03T01:00:03;102856.94;;;6.02;68.86
70407;BME280;57821;52.202;0.154;2023-03-03T01:02:31;102857.72;;;6.01;68.66
70407;BME280;57821;52.202;0.154;2023-03-03T01:04:58;102849.78;;;5.96;68.94
70407;BME280;57821;52.202;0.154;2023-03-03T01:07:25;102846.19;;;5.93;69.29
70407;BME280;57821;52.202;0.154;2023-03-03T01:09:52;102866.03;;;5.95;68.85
70407;BME280;57821;52.202;0.154;2023-03-03T01:12:19;102859.19;;;5.96;68.77
70407;BME280;57821;52.202;0.154;2023-03-03T01:14:46;102860.00;;;5.95;69.10
70407;BME280;57821;52.202;0.154;2023-03-03T01:17:12;102855.63;;;5.92;69.07
70407;BME280;57821;52.202;0.154;2023-03-03T01:19:39;102853.91;;;5.93;69.29
70407;BME280;57821;52.202;0.154;2023-03-03T01:22:06;102860.84;;;5.94;69.10
70407;BME280;57821;52.202;0.154;2023-03-03T01:24:33;102861.69;;;5.94;69.54
70407;BME280;57821;52.202;0.154;2023-03-03T01:26:59;102859.19;;;5.96;68.80
70407;BME280;57821;52.202;0.154;2023-03-03T01:29:26;102862.59;;;5.95;69.55
70407;BME280;57821;52.202;0.154;2023-03-03T01:31:53;102858.28;;;5.94;70.19
70407;BME280;57821;52.202;0.154;2023-03-03T01:34:20;102856.41;;;5.91;69.25
70407;BME280;57821;52.202;0.154;2023-03-03T01:36:47;102863.13;;;5.88;69.94
70407;BME280;57821;52.202;0.154;2023-03-03T01:39:13;102859.72;;;5.89;69.33
70407;BME280;57821;52.202;0.154;2023-03-03T01:41:40;102856.09;;;5.85;70.02
70407;BME280;57821;52.202;0.154;2023-03-03T01:44:12;102863.88;;;5.87;69.52
70407;BME280;57821;52.202;0.154;2023-03-03T01:46:47;102859.53;;;5.86;70.46
70407;BME280;57821;52.202;0.154;2023-03-03T01:49:25;102857.78;;;5.85;69.69
70407;BME280;57821;52.202;0.154;2023-03-03T01:51:57;102857.78;;;5.85;69.62
70407;BME280;57821;52.202;0.154;2023-03-03T01:54:35;102854.97;;;5.80;69.62
70407;BME280;57821;52.202;0.154;2023-03-03T01:57:09;102848.94;;;5.79;69.43
70407;BME280;57821;52.202;0.154;2023-03-03T01:59:43;102859.47;;;5.84;69.34
70407;BME280;57821;52.202;0.154;2023-03-03T02:02:10;102852.50;;;5.82;69.77
70407;BME280;57821;52.202;0.154;2023-03-03T02:04:38;102863.50;;;5.79;69.98
70407;BME280;57821;52.202;0.154;2023-03-03T02:07:08;102851.13;;;5.72;70.35
70407;BME280;57821;52.202;0.154;2023-03-03T02:10:04;102862.47;;;5.75;70.36
70407;BME280;57821;52.202;0.154;2023-03-03T02:12:38;102851.13;;;5.72;70.97
70407;BME280;57821;52.202;0.154;2023-03-03T02:17:43;102853.78;;;5.73;70.36
70407;BME280;57821;52.202;0.154;2023-03-03T02:20:15;102858.94;;;5.73;70.62
70407;BME280;57821;52.202;0.154;2023-03-03T02:25:38;102849.94;;;5.65;70.97
70407;BME280;57821;52.202;0.154;2023-03-03T02:28:08;102850.78;;;5.64;70.83
70407;BME280;57821;52.202;0.154;2023-03-03T02:30:38;102858.50;;;5.64;70.96
70407;BME280;57821;52.202;0.154;2023-03-03T02:33:06;102854.25;;;5.65;71.09
70407;BME280;57821;52.202;0.154;2023-03-03T02:35:36;102855.94;;;5.64;71.36
70407;BME280;57821;52.202;0.154;2023-03-03T02:40:36;102853.34;;;5.64;71.41
70407;BME280;57821;52.202;0.154;2023-03-03T02:43:05;102841.13;;;5.60;71.34
70407;BME280;57821;52.202;0.154;2023-03-03T02:45:33;102835.03;;;5.58;71.33
70407;BME280;57821;52.202;0.154;2023-03-03T02:48:00;102836.63;;;5.56;70.90
70407;BME280;57821;52.202;0.154;2023-03-03T02:50:27;102840.81;;;5.54;71.58
70407;BME280;57821;52.202;0.154;2023-03-03T02:52:53;102834.72;;;5.52;71.55
70407;BME280;57821;52.202;0.154;2023-03-03T02:55:21;102837.31;;;5.52;72.49
70407;BME280;57821;52.202;0.154;2023-03-03T02:57:48;102832.72;;;5.47;72.33
70407;BME280;57821;52.202;0.154;2023-03-03T03:00:14;102838.81;;;5.49;71.97
70407;BME280;57821;52.202;0.154;2023-03-03T03:02:41;102839.63;;;5.48;72.57
70407;BME280;57821;52.202;0.154;2023-03-03T03:05:08;102847.44;;;5.49;72.34
70407;BME280;57821;52.202;0.154;2023-03-03T03:07:38;102846.53;;;5.49;71.97
70407;BME280;57821;52.202;0.154;2023-03-03T03:10:06;102848.09;;;5.45;72.80
70407;BME280;57821;52.202;0.154;2023-03-03T03:12:36;102848.09;;;5.45;73.58
70407;BME280;57821;52.202;0.154;2023-03-03T03:15:03;102855.06;;;5.48;72.17
70407;BME280;57821;52.202;0.154;2023-03-03T03:17:30;102848.88;;;5.44;72.73
70407;BME280;57821;52.202;0.154;2023-03-03T03:19:58;102855.13;;;5.49;72.76
70407;BME280;57821;52.202;0.154;2023-03-03T03:22:25;102841.03;;;5.41;72.79
70407;BME280;57821;52.202;0.154;2023-03-03T03:24:52;102854.22;;;5.47;72.69
70407;BME280;57821;52.202;0.154;2023-03-03T03:27:19;102849.06;;;5.47;72.97
70407;BME280;57821;52.202;0.154;2023-03-03T03:29:47;102855.81;;;5.45;73.24
70407;BME280;57821;52.202;0.154;2023-03-03T03:32:14;102850.50;;;5.42;72.94
70407;BME280;57821;52.202;0.154;2023-03-03T03:34:41;102860.19;;;5.48;72.99
70407;BME280;57821;52.202;0.154;2023-03-03T03:37:09;102851.47;;;5.44;73.16
70407;BME280;57821;52.202;0.154;2023-03-03T03:39:37;102854.91;;;5.45;73.37
70407;BME280;57821;52.202;0.154;2023-03-03T03:42:03;102857.50;;;5.45;73.23
70407;BME280;57821;52.202;0.154;2023-03-03T03:44:30;102860.16;;;5.46;73.45
70407;BME280;57821;52.202;0.154;2023-03-03T03:46:57;102853.22;;;5.45;73.43
70407;BME280;57821;52.202;0.154;2023-03-03T03:49:24;102853.16;;;5.44;73.07
70407;BME280;57821;52.202;0.154;2023-03-03T03:51:53;102841.97;;;5.43;72.88
70407;BME280;57821;52.202;0.154;2023-03-03T03:54:23;102841.97;;;5.43;72.68
70407;BME280;57821;52.202;0.154;2023-03-03T03:56:50;102845.66;;;5.48;72.85
70407;BME280;57821;52.202;0.154;2023-03-03T03:59:17;102834.25;;;5.43;72.24
70407;BME280;57821;52.202;0.154;2023-03-03T04:01:43;102847.50;;;5.51;72.95
70407;BME280;57821;52.202;0.154;2023-03-03T04:04:10;102839.69;;;5.49;72.67
70407;BME280;57821;52.202;0.154;2023-03-03T04:06:37;102838.91;;;5.50;72.59
70407;BME280;57821;52.202;0.154;2023-03-03T04:09:04;102828.16;;;5.41;72.21
70407;BME280;57821;52.202;0.154;2023-03-03T04:11:32;102840.38;;;5.45;72.43
70407;BME280;57821;52.202;0.154;2023-03-03T04:13:59;102835.22;;;5.45;72.71
70407;BME280;57821;52.202;0.154;2023-03-03T04:16:26;102850.00;;;5.49;72.38
70407;BME280;57821;52.202;0.154;2023-03-03T04:18:53;102852.44;;;5.46;72.34
70407;BME280;57821;52.202;0.154;2023-03-03T04:21:20;102845.50;;;5.45;72.39
70407;BME280;57821;52.202;0.154;2023-03-03T04:23:48;102854.78;;;5.42;72.62
70407;BME280;57821;52.202;0.154;2023-03-03T04:26:16;102855.81;;;5.45;72.14
70407;BME280;57821;52.202;0.154;2023-03-03T04:28:44;102859.19;;;5.44;72.00
70407;BME280;57821;52.202;0.154;2023-03-03T04:31:11;102860.94;;;5.45;72.36
70407;BME280;57821;52.202;0.154;2023-03-03T04:33:38;102845.03;;;5.36;72.85
70407;BME280;57821;52.202;0.154;2023-03-03T04:36:06;102848.75;;;5.41;72.62
70407;BME280;57821;52.202;0.154;2023-03-03T04:38:33;102863.53;;;5.45;72.55
70407;BME280;57821;52.202;0.154;2023-03-03T04:40:59;102856.47;;;5.41;72.40
70407;BME280;57821;52.202;0.154;2023-03-03T04:43:31;102859.03;;;5.41;72.35
70407;BME280;57821;52.202;0.154;2023-03-03T04:45:58;102860.78;;;5.42;72.40
70407;BME280;57821;52.202;0.154;2023-03-03T04:48:25;102861.75;;;5.44;71.71
70407;BME280;57821;52.202;0.154;2023-03-03T04:50:52;102859.84;;;5.40;72.17
70407;BME280;57821;52.202;0.154;2023-03-03T04:53:19;102856.38;;;5.40;71.97
70407;BME280;57821;52.202;0.154;2023-03-03T04:55:49;102861.44;;;5.38;72.43
70407;BME280;57821;52.202;0.154;2023-03-03T04:58:17;102864.00;;;5.38;72.04
70407;BME280;57821;52.202;0.154;2023-03-03T05:00:45;102866.75;;;5.41;71.85
70407;BME280;57821;52.202;0.154;2023-03-03T05:03:12;102871.91;;;5.41;72.33
70407;BME280;57821;52.202;0.154;2023-03-03T05:05:41;102865.63;;;5.36;71.89
70407;BME280;57821;52.202;0.154;2023-03-03T05:08:07;102868.13;;;5.34;71.59
70407;BME280;57821;52.202;0.154;2023-03-03T05:10:34;102868.03;;;5.33;72.01
70407;BME280;57821;52.202;0.154;2023-03-03T05:13:01;102865.47;;;5.33;72.03
70407;BME280;57821;52.202;0.154;2023-03-03T05:15:27;102872.22;;;5.31;71.69
70407;BME280;57821;52.202;0.154;2023-03-03T05:17:54;102870.47;;;5.30;71.41
70407;BME280;57821;52.202;0.154;2023-03-03T05:20:23;102874.97;;;5.34;71.24
70407;BME280;57821;52.202;0.154;2023-03-03T05:22:50;102870.63;;;5.33;71.88
70407;BME280;57821;52.202;0.154;2023-03-03T05:25:16;102869.59;;;5.29;71.33
70407;BME280;57821;52.202;0.154;2023-03-03T05:27:43;102865.25;;;5.28;71.79
70407;BME280;57821;52.202;0.154;2023-03-03T05:30:10;102858.41;;;5.29;71.77
70407;BME280;57821;52.202;0.154;2023-03-03T05:32:37;102868.84;;;5.32;71.39
70407;BME280;57821;52.202;0.154;2023-03-03T05:35:04;102869.03;;;5.35;71.31
70407;BME280;57821;52.202;0.154;2023-03-03T05:37:31;102866.19;;;5.30;71.18
70407;BME280;57821;52.202;0.154;2023-03-03T05:40:01;102858.41;;;5.29;71.14
70407;BME280;57821;52.202;0.154;2023-03-03T05:42:33;102848.75;;;5.25;71.94
70407;BME280;57821;52.202;0.154;2023-03-03T05:45:06;102861.63;;;5.25;71.61
70407;BME280;57821;52.202;0.154;2023-03-03T05:47:33;102863.56;;;5.29;71.80
70407;BME280;57821;52.202;0.154;2023-03-03T05:50:00;102871.50;;;5.33;71.03
70407;BME280;57821;52.202;0.154;2023-03-03T05:52:27;102873.19;;;5.33;71.68
70407;BME280;57821;52.202;0.154;2023-03-03T05:54:56;102872.22;;;5.31;71.59
70407;BME280;57821;52.202;0.154;2023-03-03T05:57:23;102867.16;;;5.32;70.77
70407;BME280;57821;52.202;0.154;2023-03-03T05:59:49;102872.22;;;5.31;71.17
70407;BME280;57821;52.202;0.154;2023-03-03T06:02:16;102873.06;;;5.30;70.95
70407;BME280;57821;52.202;0.154;2023-03-03T06:04:43;102866.94;;;5.28;71.36
70407;BME280;57821;52.202;0.154;2023-03-03T06:07:09;102876.41;;;5.29;71.66
70407;BME280;57821;52.202;0.154;2023-03-03T06:09:36;102868.69;;;5.29;70.57
70407;BME280;57821;52.202;0.154;2023-03-03T06:12:03;102873.06;;;5.30;70.57
70407;BME280;57821;52.202;0.154;2023-03-03T06:14:30;102878.19;;;5.30;71.10
70407;BME280;57821;52.202;0.154;2023-03-03T06:16:56;102878.25;;;5.31;70.89
70407;BME280;57821;52.202;0.154;2023-03-03T06:19:23;102865.88;;;5.24;70.50
70407;BME280;57821;52.202;0.154;2023-03-03T06:21:50;102879.13;;;5.32;71.13
70407;BME280;57821;52.202;0.154;2023-03-03T06:24:16;102892.09;;;5.33;70.74
70407;BME280;57821;52.202;0.154;2023-03-03T06:26:43;102885.06;;;5.31;70.52
70407;BME280;57821;52.202;0.154;2023-03-03T06:29:09;102898.13;;;5.34;70.33
70407;BME280;57821;52.202;0.154;2023-03-03T06:31:36;102889.34;;;5.30;70.58
70407;BME280;57821;52.202;0.154;2023-03-03T06:34:03;102886.75;;;5.30;71.12
70407;BME280;57821;52.202;0.154;2023-03-03T06:36:29;102886.72;;;5.29;71.31
70407;BME280;57821;52.202;0.154;2023-03-03T06:38:56;102892.66;;;5.28;71.21
70407;BME280;57821;52.202;0.154;2023-03-03T06:41:22;102891.91;;;5.30;70.93
70407;BME280;57821;52.202;0.154;2023-03-03T06:43:49;102894.56;;;5.32;71.16
70407;BME280;57821;52.202;0.154;2023-03-03T06:46:15;102890.09;;;5.28;70.80
70407;BME280;57821;52.202;0.154;2023-03-03T06:48:42;102895.13;;;5.26;70.29
70407;BME280;57821;52.202;0.154;2023-03-03T06:51:24;102901.34;;;5.30;71.55
70407;BME280;57821;52.202;0.154;2023-03-03T06:53:55;102894.25;;;5.26;70.55
70407;BME280;57821;52.202;0.154;2023-03-03T06:56:24;102904.84;;;5.32;71.45
70407;BME280;57821;52.202;0.154;2023-03-03T06:58:59;102892.47;;;5.25;71.16
70407;BME280;57821;52.202;0.154;2023-03-03T07:01:35;102905.66;;;5.31;70.85
70407;BME280;57821;52.202;0.154;2023-03-03T07:06:47;102909.34;;;5.36;71.35
70407;BME280;57821;52.202;0.154;2023-03-03T07:09:25;102906.06;;;5.38;71.06
70407;BME280;57821;52.202;0.154;2023-03-03T07:11:59;102907.03;;;5.41;70.19
70407;BME280;57821;52.202;0.154;2023-03-03T07:14:28;102914.91;;;5.44;70.83
70407;BME280;57821;52.202;0.154;2023-03-03T07:16:57;102922.69;;;5.45;70.44
70407;BME280;57821;52.202;0.154;2023-03-03T07:19:35;102909.66;;;5.42;70.16
70407;BME280;57821;52.202;0.154;2023-03-03T07:24:40;102911.75;;;5.49;70.59
70407;BME280;57821;52.202;0.154;2023-03-03T07:27:22;102920.34;;;5.50;70.39
70407;BME280;57821;52.202;0.154;2023-03-03T07:29:52;102925.59;;;5.51;69.91
70407;BME280;57821;52.202;0.154;2023-03-03T07:32:25;102931.72;;;5.53;70.69
70407;BME280;57821;52.202;0.154;2023-03-03T07:34:54;102926.69;;;5.56;70.59
70407;BME280;57821;52.202;0.154;2023-03-03T07:37:29;102931.13;;;5.59;70.49
70407;BME280;57821;52.202;0.154;2023-03-03T07:39:56;102932.88;;;5.60;70.78
70407;BME280;57821;52.202;0.154;2023-03-03T07:42:27;102931.19;;;5.60;70.24
70407;BME280;57821;52.202;0.154;2023-03-03T07:45:24;102934.81;;;5.64;70.80
70407;BME280;57821;52.202;0.154;2023-03-03T07:48:14;102919.13;;;5.59;70.07
70407;BME280;57821;52.202;0.154;2023-03-03T07:50:44;102927.31;;;5.68;69.97
70407;BME280;57821;52.202;0.154;2023-03-03T07:53:25;102927.25;;;5.67;70.28
70407;BME280;57821;52.202;0.154;2023-03-03T07:55:53;102932.78;;;5.74;69.96
70407;BME280;57821;52.202;0.154;2023-03-03T07:58:30;102925.88;;;5.73;70.51
70407;BME280;57821;52.202;0.154;2023-03-03T08:03:48;102941.75;;;5.83;70.79
70407;BME280;57821;52.202;0.154;2023-03-03T08:11:50;102943.00;;;5.89;70.57
70407;BME280;57821;52.202;0.154;2023-03-03T08:14:24;102947.41;;;5.92;70.49
70407;BME280;57821;52.202;0.154;2023-03-03T08:16:51;102955.44;;;5.98;70.11
70407;BME280;57821;52.202;0.154;2023-03-03T08:19:18;102947.72;;;5.98;70.61
70407;BME280;57821;52.202;0.154;2023-03-03T08:21:45;102950.31;;;5.98;70.56
70407;BME280;57821;52.202;0.154;2023-03-03T08:24:11;102956.69;;;6.06;70.72
70407;BME280;57821;52.202;0.154;2023-03-03T08:26:38;102966.44;;;6.11;70.05
70407;BME280;57821;52.202;0.154;2023-03-03T08:29:04;102963.63;;;6.07;70.13
70407;BME280;57821;52.202;0.154;2023-03-03T08:31:31;102973.34;;;6.12;70.92
70407;BME280;57821;52.202;0.154;2023-03-03T08:34:07;102968.06;;;6.09;71.31
70407;BME280;57821;52.202;0.154;2023-03-03T08:36:34;102976.81;;;6.13;70.54
70407;BME280;57821;52.202;0.154;2023-03-03T08:39:02;102984.69;;;6.16;71.77
70407;BME280;57821;52.202;0.154;2023-03-03T08:41:29;102979.38;;;6.13;71.04
70407;BME280;57821;52.202;0.154;2023-03-03T08:43:55;102979.38;;;6.13;71.80
70407;BME280;57821;52.202;0.154;2023-03-03T08:46:23;102968.06;;;6.09;71.79
70407;BME280;57821;52.202;0.154;2023-03-03T08:48:49;102981.00;;;6.11;71.81
70407;BME280;57821;52.202;0.154;2023-03-03T08:51:16;102983.63;;;6.12;72.57
70407;BME280;57821;52.202;0.154;2023-03-03T08:53:42;102976.75;;;6.11;72.32
70407;BME280;57821;52.202;0.154;2023-03-03T08:56:10;102967.84;;;6.05;72.26
70407;BME280;57821;52.202;0.154;2023-03-03T08:58:37;102976.97;;;6.16;73.02
70407;BME280;57821;52.202;0.154;2023-03-03T09:01:03;102978.06;;;6.21;73.13
70407;BME280;57821;52.202;0.154;2023-03-03T09:03:30;102982.88;;;6.31;73.10
70407;BME280;57821;52.202;0.154;2023-03-03T09:05:57;102993.56;;;6.39;73.35
70407;BME280;57821;52.202;0.154;2023-03-03T09:08:24;102990.16;;;6.40;73.13
70407;BME280;57821;52.202;0.154;2023-03-03T09:10:50;102991.28;;;6.45;73.02
70407;BME280;57821;52.202;0.154;2023-03-03T09:13:18;102998.41;;;6.50;73.83
70407;BME280;57821;52.202;0.154;2023-03-03T09:15:45;102997.66;;;6.53;73.25
70407;BME280;57821;52.202;0.154;2023-03-03T09:18:18;103000.53;;;6.59;73.81
70407;BME280;57821;52.202;0.154;2023-03-03T09:20:47;103003.50;;;6.67;73.34
70407;BME280;57821;52.202;0.154;2023-03-03T09:23:36;102997.94;;;6.77;74.84
70407;BME280;57821;52.202;0.154;2023-03-03T09:26:23;102999.34;;;6.88;74.23
70407;BME280;57821;52.202;0.154;2023-03-03T09:28:50;102993.53;;;6.92;73.93
70407;BME280;57821;52.202;0.154;2023-03-03T09:31:25;102994.63;;;6.97;73.57
70407;BME280;57821;52.202;0.154;2023-03-03T09:33:53;102994.69;;;6.98;73.11
70407;BME280;57821;52.202;0.154;2023-03-03T09:36:29;102999.88;;;6.98;72.67
70407;BME280;57821;52.202;0.154;2023-03-03T09:39:21;102985.84;;;6.93;72.51
70407;BME280;57821;52.202;0.154;2023-03-03T09:42:10;102993.84;;;6.99;72.85
70407;BME280;57821;52.202;0.154;2023-03-03T09:58:14;103011.47;;;7.08;72.63
70407;BME280;57821;52.202;0.154;2023-03-03T10:01:00;103023.28;;;7.03;73.67
70407;BME280;57821;52.202;0.154;2023-03-03T10:06:19;103024.78;;;6.98;75.02
70407;BME280;57821;52.202;0.154;2023-03-03T10:11:40;103020.13;;;6.91;74.74
70407;BME280;57821;52.202;0.154;2023-03-03T10:19:53;103028.00;;;6.94;74.09
70407;BME280;57821;52.202;0.154;2023-03-03T10:25:37;103025.56;;;6.97;74.55
70407;BME280;57821;52.202;0.154;2023-03-03T10:28:25;103023.81;;;6.96;74.80
70407;BME280;57821;52.202;0.154;2023-03-03T10:34:14;103037.13;;;7.05;73.50
70407;BME280;57821;52.202;0.154;2023-03-03T10:37:00;103029.31;;;7.04;73.38
70407;BME280;57821;52.202;0.154;2023-03-03T10:47:56;103039.66;;;7.04;73.16
70407;BME280;57821;52.202;0.154;2023-03-03T10:50:53;103037.34;;;7.10;73.64
70407;BME280;57821;52.202;0.154;2023-03-03T10:53:33;103039.63;;;7.21;73.99
70407;BME280;57821;52.202;0.154;2023-03-03T10:58:45;103047.88;;;7.51;73.76
70407;BME280;57821;52.202;0.154;2023-03-03T11:01:23;103035.28;;;7.59;74.32
70407;BME280;57821;52.202;0.154;2023-03-03T11:06:41;103035.56;;;7.84;72.57
70407;BME280;57821;52.202;0.154;2023-03-03T11:09:40;103043.91;;;7.98;72.60
70407;BME280;57821;52.202;0.154;2023-03-03T11:12:33;103050.69;;;8.15;71.78
70407;BME280;57821;52.202;0.154;2023-03-03T11:18:02;103041.91;;;8.31;71.30
70407;BME280;57821;52.202;0.154;2023-03-03T11:26:08;103050.31;;;8.68;69.67
70407;BME280;57821;52.202;0.154;2023-03-03T11:31:21;103044.47;;;8.72;69.29
70407;BME280;57821;52.202;0.154;2023-03-03T11:37:05;103047.34;;;8.80;68.42
70407;BME280;57821;52.202;0.154;2023-03-03T11:39:34;103045.84;;;8.85;68.86
70407;BME280;57821;52.202;0.154;2023-03-03T11:42:25;103044.00;;;8.82;67.46
70407;BME280;57821;52.202;0.154;2023-03-03T11:44:59;103053.06;;;8.93;68.08
70407;BME280;57821;52.202;0.154;2023-03-03T11:47:32;103045.44;;;8.96;67.89
70407;BME280;57821;52.202;0.154;2023-03-03T11:50:04;103041.03;;;8.94;67.34
70407;BME280;57821;52.202;0.154;2023-03-03T11:55:05;103043.44;;;8.89;66.69
70407;BME280;57821;52.202;0.154;2023-03-03T11:57:42;103030.44;;;8.88;66.50
70407;BME280;57821;52.202;0.154;2023-03-03T12:14:46;103031.31;;;8.88;66.15
70407;BME280;57821;52.202;0.154;2023-03-03T12:24:42;103034.47;;;8.81;65.80
70407;BME280;57821;52.202;0.154;2023-03-03T12:32:56;103016.84;;;8.71;66.12
70407;BME280;57821;52.202;0.154;2023-03-03T12:38:15;103013.50;;;8.53;66.65
70407;BME280;57821;52.202;0.154;2023-03-03T12:41:05;103019.97;;;8.42;67.87
70407;BME280;57821;52.202;0.154;2023-03-03T12:48:45;103016.84;;;8.30;69.26
70407;BME280;57821;52.202;0.154;2023-03-03T13:02:27;103013.34;;;8.48;68.93
70407;BME280;57821;52.202;0.154;2023-03-03T13:07:40;103011.38;;;8.43;69.02
70407;BME280;57821;52.202;0.154;2023-03-03T13:13:15;103005.97;;;8.37;68.22
70407;BME280;57821;52.202;0.154;2023-03-03T13:18:56;103003.13;;;8.31;68.39
70407;BME280;57821;52.202;0.154;2023-03-03T13:21:40;102990.72;;;8.23;68.42
70407;BME280;57821;52.202;0.154;2023-03-03T13:24:22;102986.56;;;8.27;69.24
70407;BME280;57821;52.202;0.154;2023-03-03T13:27:03;102997.19;;;8.33;68.27
70407;BME280;57821;52.202;0.154;2023-03-03T13:29:39;102989.63;;;8.38;68.01
70407;BME280;57821;52.202;0.154;2023-03-03T13:32:16;102987.47;;;8.48;67.91
70407;BME280;57821;52.202;0.154;2023-03-03T13:34:54;102982.63;;;8.56;67.09
70407;BME280;57821;52.202;0.154;2023-03-03T13:37:31;102976.84;;;8.63;65.85
70407;BME280;57821;52.202;0.154;2023-03-03T13:40:04;102980.88;;;8.77;66.25
70407;BME280;57821;52.202;0.154;2023-03-03T13:42:42;102982.09;;;8.87;65.27
70407;BME280;57821;52.202;0.154;2023-03-03T13:51:28;102971.97;;;9.15;64.02
70407;BME280;57821;52.202;0.154;2023-03-03T13:54:12;102983.44;;;9.22;64.50
70407;BME280;57821;52.202;0.154;2023-03-03T13:59:55;102967.66;;;9.16;63.13
70407;BME280;57821;52.202;0.154;2023-03-03T14:05:48;102972.81;;;9.14;63.15
70407;BME280;57821;52.202;0.154;2023-03-03T14:08:23;102951.88;;;9.08;62.96
70407;BME280;57821;52.202;0.154;2023-03-03T14:11:33;102959.75;;;9.11;62.65
70407;BME280;57821;52.202;0.154;2023-03-03T14:14:16;102956.41;;;9.14;62.78
70407;BME280;57821;52.202;0.154;2023-03-03T14:16:49;102963.53;;;9.21;62.24
70407;BME280;57821;52.202;0.154;2023-03-03T14:19:22;102954.06;;;9.21;62.43
70407;BME280;57821;52.202;0.154;2023-03-03T14:22:11;102948.06;;;9.22;62.21
70407;BME280;57821;52.202;0.154;2023-03-03T14:25:07;102949.69;;;9.19;61.14
70407;BME280;57821;52.202;0.154;2023-03-03T14:27:52;102948.78;;;9.18;61.26
70407;BME280;57821;52.202;0.154;2023-03-03T14:30:32;102949.94;;;9.26;61.97
70407;BME280;57821;52.202;0.154;2023-03-03T14:35:40;102945.25;;;9.40;60.40
70407;BME280;57821;52.202;0.154;2023-03-03T14:40:37;102935.88;;;9.43;61.05
70407;BME280;57821;52.202;0.154;2023-03-03T14:43:19;102945.69;;;9.52;59.59
70407;BME280;57821;52.202;0.154;2023-03-03T14:45:47;102942.28;;;9.53;60.49
70407;BME280;57821;52.202;0.154;2023-03-03T14:48:27;102944.16;;;9.57;60.21
70407;BME280;57821;52.202;0.154;2023-03-03T14:51:23;102938.91;;;9.56;60.05
70407;BME280;57821;52.202;0.154;2023-03-03T14:53:50;102939.09;;;9.60;59.89
70407;BME280;57821;52.202;0.154;2023-03-03T14:56:33;102943.53;;;9.64;59.40
70407;BME280;57821;52.202;0.154;2023-03-03T15:01:44;102949.97;;;9.75;60.04
70407;BME280;57821;52.202;0.154;2023-03-03T15:06:51;102942.59;;;9.62;58.72
70407;BME280;57821;52.202;0.154;2023-03-03T15:09:37;102941.63;;;9.59;59.38
70407;BME280;57821;52.202;0.154;2023-03-03T15:12:25;102939.19;;;9.63;59.29
70407;BME280;57821;52.202;0.154;2023-03-03T15:15:12;102927.94;;;9.63;58.75
70407;BME280;57821;52.202;0.154;2023-03-03T15:20:36;102932.03;;;9.81;59.55
70407;BME280;57821;52.202;0.154;2023-03-03T15:23:13;102938.47;;;9.93;58.97
70407;BME280;57821;52.202;0.154;2023-03-03T15:25:51;102930.63;;;9.91;58.35
70407;BME280;57821;52.202;0.154;2023-03-03T15:36:46;102918.63;;;9.42;59.45
70407;BME280;57821;52.202;0.154;2023-03-03T15:44:41;102917.34;;;9.31;59.14
70407;BME280;57821;52.202;0.154;2023-03-03T15:47:26;102908.84;;;9.35;58.75
70407;BME280;57821;52.202;0.154;2023-03-03T15:55:27;102911.75;;;9.21;57.68
70407;BME280;57821;52.202;0.154;2023-03-03T15:58:20;102911.69;;;9.18;57.95
70407;BME280;57821;52.202;0.154;2023-03-03T16:01:05;102910.44;;;9.32;58.43
70407;BME280;57821;52.202;0.154;2023-03-03T16:03:51;102903.97;;;9.43;57.53
70407;BME280;57821;52.202;0.154;2023-03-03T16:09:29;102907.47;;;9.45;56.41
70407;BME280;57821;52.202;0.154;2023-03-03T16:12:30;102903.75;;;9.37;56.66
70407;BME280;57821;52.202;0.154;2023-03-03T16:15:40;102906.94;;;9.30;56.85
70407;BME280;57821;52.202;0.154;2023-03-03T16:18:32;102906.81;;;9.27;56.41
70407;BME280;57821;52.202;0.154;2023-03-03T16:23:48;102909.69;;;9.11;56.42
70407;BME280;57821;52.202;0.154;2023-03-03T16:31:39;102910.53;;;8.87;56.80
70407;BME280;57821;52.202;0.154;2023-03-03T16:37:29;102909.81;;;9.37;56.67
70407;BME280;57821;52.202;0.154;2023-03-03T16:40:25;102904.19;;;9.49;55.66
70407;BME280;57821;52.202;0.154;2023-03-03T16:43:06;102904.88;;;9.45;55.28
70407;BME280;57821;52.202;0.154;2023-03-03T16:45:38;102908.41;;;9.47;55.85
70407;BME280;57821;52.202;0.154;2023-03-03T16:51:08;102914.47;;;9.24;56.25
70407;BME280;57821;52.202;0.154;2023-03-03T16:56:22;102916.00;;;8.95;57.06
70407;BME280;57821;52.202;0.154;2023-03-03T17:01:48;102916.69;;;8.67;58.08